createdAt,value
2023-09-17T00:02:08.996Z,22.38
2023-09-17T00:07:08.110Z,22.40
2023-09-17T00:12:08.026Z,22.47
2023-09-17T00:17:08.498Z,22.34
2023-09-17T00:22:10.382Z,22.25
2023-09-17T00:27:09.627Z,22.09
2023-09-17T00:32:11.318Z,22.12
2023-09-17T00:37:12.680Z,22.08
2023-09-17T00:42:12.995Z,21.99
2023-09-17T00:47:14.683Z,21.90
2023-09-17T00:52:18.529Z,21.86
2023-09-17T00:57:18.978Z,21.88
2023-09-17T01:02:25.450Z,21.85
2023-09-17T01:07:24.877Z,21.90
2023-09-17T01:12:23.965Z,21.92
2023-09-17T01:17:26.028Z,21.97
2023-09-17T01:22:30.687Z,21.98
2023-09-17T01:27:31.315Z,21.95
2023-09-17T01:32:30.362Z,21.91
2023-09-17T01:37:32.738Z,21.83
2023-09-17T01:42:34.209Z,21.75
2023-09-17T01:47:34.207Z,21.76
2023-09-17T01:52:35.352Z,21.80
2023-09-17T01:57:35.699Z,21.81
2023-09-17T02:02:34.685Z,21.83
2023-09-17T02:07:33.742Z,21.92
2023-09-17T02:12:32.907Z,21.86
2023-09-17T02:17:33.275Z,21.90
2023-09-17T02:22:32.262Z,21.83
2023-09-17T02:27:31.287Z,21.84
2023-09-17T02:32:30.377Z,21.80
2023-09-17T02:37:30.666Z,21.88
2023-09-17T02:42:29.732Z,21.89
2023-09-17T02:47:29.854Z,21.92
2023-09-17T02:52:30.466Z,21.90
2023-09-17T02:57:29.709Z,21.79
2023-09-17T03:02:29.481Z,21.79
2023-09-17T03:07:28.670Z,21.80
2023-09-17T03:12:29.057Z,21.83
2023-09-17T03:17:28.735Z,21.88
2023-09-17T03:22:27.817Z,21.86
2023-09-17T03:27:28.625Z,21.80
2023-09-17T03:32:27.820Z,21.74
2023-09-17T03:37:27.251Z,21.71
2023-09-17T03:42:26.556Z,21.60
2023-09-17T03:47:26.987Z,21.39
2023-09-17T03:52:26.748Z,21.29
2023-09-17T03:57:25.854Z,21.21
2023-09-17T04:02:27.089Z,21.12
2023-09-17T04:07:26.194Z,20.97
2023-09-17T04:12:25.120Z,20.90
2023-09-17T04:17:24.345Z,20.80
2023-09-17T04:22:25.161Z,20.85
2023-09-17T04:27:24.030Z,20.86
2023-09-17T04:32:23.052Z,20.93
2023-09-17T04:37:22.678Z,20.93
2023-09-17T04:42:23.327Z,20.92
2023-09-17T04:47:22.493Z,20.89
2023-09-17T04:52:21.557Z,20.92
2023-09-17T04:57:20.627Z,21.04
2023-09-17T05:02:23.291Z,21.06
2023-09-17T05:07:23.221Z,20.95
2023-09-17T05:12:22.594Z,21.04
2023-09-17T05:17:23.327Z,21.26
2023-09-17T05:22:22.496Z,21.39
2023-09-17T05:27:21.715Z,21.60
2023-09-17T05:32:22.499Z,21.86
2023-09-17T05:37:21.731Z,21.98
2023-09-17T05:42:21.794Z,21.93
2023-09-17T05:47:23.421Z,22.19
2023-09-17T05:52:22.579Z,22.28
2023-09-17T05:57:21.608Z,22.38
2023-09-17T06:02:20.770Z,22.73
2023-09-17T06:07:21.354Z,22.84
2023-09-17T06:12:21.023Z,22.84
2023-09-17T06:17:20.301Z,22.92
2023-09-17T06:22:21.047Z,23.01
2023-09-17T06:27:20.609Z,23.00
2023-09-17T06:32:20.031Z,23.23
2023-09-17T06:37:20.816Z,23.35
2023-09-17T06:42:21.739Z,23.42
2023-09-17T06:47:22.965Z,23.32
2023-09-17T06:52:26.740Z,23.47
2023-09-17T06:57:26.222Z,23.40
2023-09-17T07:02:25.691Z,23.64
2023-09-17T07:07:26.022Z,23.78
2023-09-17T07:12:25.124Z,23.94
2023-09-17T07:17:24.203Z,24.07
2023-09-17T07:22:23.415Z,23.99
2023-09-17T07:27:23.743Z,24.00
2023-09-17T07:32:22.748Z,24.30
2023-09-17T07:37:25.755Z,24.39
2023-09-17T07:42:31.345Z,24.61
2023-09-17T07:47:30.248Z,24.74
2023-09-17T07:52:29.325Z,25.04
2023-09-17T07:57:28.360Z,25.36
2023-09-17T08:02:28.789Z,25.75
2023-09-17T08:07:28.038Z,25.87
2023-09-17T08:12:27.030Z,26.09
2023-09-17T08:17:26.601Z,26.47
2023-09-17T08:22:35.455Z,26.74
2023-09-17T08:27:35.031Z,27.03
2023-09-17T08:32:34.847Z,27.19
2023-09-17T08:37:40.880Z,27.39
2023-09-17T08:42:41.420Z,27.93
2023-09-17T08:47:40.824Z,28.29
2023-09-17T08:52:45.384Z,28.21
2023-09-17T08:57:48.957Z,28.32
2023-09-17T09:02:52.200Z,28.33
2023-09-17T09:07:54.414Z,28.35
2023-09-17T09:13:06.240Z,28.62
2023-09-17T09:18:05.860Z,29.11
2023-09-17T09:23:07.247Z,29.33
2023-09-17T09:28:07.174Z,30.04
2023-09-17T09:33:06.726Z,30.82
2023-09-17T09:38:07.533Z,31.24
2023-09-17T09:43:06.912Z,31.76
2023-09-17T09:48:16.229Z,31.83
2023-09-17T09:53:16.852Z,32.17
2023-09-17T09:58:16.827Z,32.49
2023-09-17T10:03:18.723Z,32.76
2023-09-17T10:08:20.604Z,32.88
2023-09-17T10:13:19.773Z,32.34
2023-09-17T10:18:21.080Z,31.97
2023-09-17T10:23:23.109Z,32.27
2023-09-17T10:28:29.464Z,32.03
2023-09-17T10:33:29.925Z,31.77
2023-09-17T10:38:33.400Z,31.92
2023-09-17T10:43:33.888Z,31.81
2023-09-17T10:48:34.616Z,31.93
2023-09-17T10:53:34.989Z,31.72
2023-09-17T10:58:42.488Z,31.54
2023-09-17T11:03:45.470Z,31.46
2023-09-17T11:08:47.865Z,31.49
2023-09-17T11:13:48.236Z,31.60
2023-09-17T11:19:06.846Z,31.55
2023-09-17T11:24:12.230Z,31.42
2023-09-17T11:29:13.098Z,31.50
2023-09-17T11:34:12.280Z,31.47
2023-09-17T11:39:17.274Z,31.64
2023-09-17T11:44:17.362Z,31.81
2023-09-17T11:49:17.504Z,32.48
2023-09-17T11:54:20.739Z,32.47
2023-09-17T11:59:20.308Z,32.35
2023-09-17T12:04:19.889Z,32.27
2023-09-17T12:09:50.179Z,32.84
2023-09-17T12:14:58.123Z,33.71
2023-09-17T12:20:42.235Z,34.46
2023-09-17T12:25:46.735Z,35.23
2023-09-17T12:30:45.993Z,36.27
2023-09-17T12:35:45.024Z,36.98
2023-09-17T12:40:45.704Z,38.32
2023-09-17T12:45:45.403Z,38.77
2023-09-17T12:50:45.546Z,39.59
2023-09-17T12:55:46.294Z,39.27
2023-09-17T13:00:45.530Z,38.99
2023-09-17T13:05:47.708Z,38.70
2023-09-17T13:10:48.432Z,39.53
2023-09-17T13:15:48.106Z,39.65
2023-09-17T13:20:48.120Z,39.83
2023-09-17T13:25:53.316Z,39.89
2023-09-17T13:30:52.681Z,39.60
2023-09-17T13:35:53.191Z,39.83
2023-09-17T13:40:54.839Z,39.63
2023-09-17T13:45:55.020Z,39.72
2023-09-17T13:50:54.686Z,39.91
2023-09-17T13:55:56.140Z,40.30
2023-09-17T14:00:55.053Z,40.92
2023-09-17T14:05:53.937Z,40.23
2023-09-17T14:10:54.308Z,40.03
2023-09-17T14:15:55.378Z,40.17
2023-09-17T14:20:54.254Z,40.75
2023-09-17T14:25:54.621Z,40.39
2023-09-17T14:30:55.329Z,39.81
2023-09-17T14:35:54.916Z,39.41
2023-09-17T14:40:55.599Z,39.87
2023-09-17T14:45:55.156Z,39.89
2023-09-17T14:50:54.769Z,39.59
2023-09-17T14:55:55.563Z,39.08
2023-09-17T15:00:54.599Z,37.92
2023-09-17T15:05:53.789Z,36.73
2023-09-17T15:10:53.378Z,35.75
2023-09-17T15:15:53.631Z,34.78
2023-09-17T15:20:52.622Z,34.27
2023-09-17T15:25:51.925Z,33.63
2023-09-17T15:30:51.618Z,32.91
2023-09-17T15:35:53.869Z,32.50
2023-09-17T15:40:53.449Z,32.21
2023-09-17T15:45:52.975Z,31.79
2023-09-17T15:50:53.451Z,31.53
2023-09-17T15:55:54.478Z,31.31
2023-09-17T16:00:53.675Z,31.17
2023-09-17T16:05:54.441Z,31.23
2023-09-17T16:10:54.181Z,30.94
2023-09-17T16:15:53.818Z,30.67
2023-09-17T16:20:54.409Z,30.36
2023-09-17T16:25:53.445Z,29.90
2023-09-17T16:30:52.559Z,29.50
2023-09-17T16:35:51.556Z,29.29
2023-09-17T16:40:51.947Z,29.43
2023-09-17T16:45:52.004Z,29.31
2023-09-17T16:50:50.887Z,28.94
2023-09-17T16:55:51.692Z,28.35
2023-09-17T17:00:51.851Z,27.96
2023-09-17T17:05:54.320Z,27.61
2023-09-17T17:10:55.413Z,27.25
2023-09-17T17:15:56.861Z,27.03
2023-09-17T17:20:56.503Z,27.14
2023-09-17T17:25:57.337Z,27.14
2023-09-17T17:31:07.181Z,27.10
2023-09-17T17:36:07.872Z,27.08
2023-09-17T17:41:09.889Z,27.09
2023-09-17T17:46:09.295Z,26.99
2023-09-17T17:51:08.662Z,26.98
2023-09-17T17:56:11.357Z,26.95
2023-09-17T18:01:10.811Z,26.86
2023-09-17T18:06:10.046Z,26.95
2023-09-17T18:11:10.574Z,26.98
2023-09-17T18:16:10.929Z,26.97
2023-09-17T18:21:10.001Z,26.99
2023-09-17T18:26:10.437Z,27.07
2023-09-17T18:31:14.454Z,26.90
2023-09-17T18:36:14.043Z,26.50
2023-09-17T18:41:16.373Z,26.18
2023-09-17T18:46:19.440Z,25.99
2023-09-17T18:51:21.524Z,25.81
2023-09-17T18:56:22.512Z,25.65
2023-09-17T19:01:21.888Z,25.47
2023-09-17T19:06:22.581Z,25.35
2023-09-17T19:11:23.378Z,25.17
2023-09-17T19:16:22.716Z,25.19
2023-09-17T19:21:21.837Z,25.22
2023-09-17T19:26:23.143Z,25.26
2023-09-17T19:31:22.347Z,25.08
2023-09-17T19:36:21.900Z,24.92
2023-09-17T19:41:22.311Z,24.71
2023-09-17T19:46:21.889Z,24.57
2023-09-17T19:51:21.343Z,24.41
2023-09-17T19:56:22.748Z,24.36
2023-09-17T20:01:22.021Z,24.26
2023-09-17T20:06:22.609Z,24.25
2023-09-17T20:11:26.518Z,24.11
2023-09-17T20:16:26.139Z,23.99
2023-09-17T20:21:25.309Z,23.95
2023-09-17T20:32:01.950Z,23.86
2023-09-17T20:37:02.636Z,23.78
2023-09-17T20:42:04.473Z,23.75
2023-09-17T20:47:05.471Z,23.54
2023-09-17T20:52:04.928Z,23.58
2023-09-17T20:57:06.093Z,23.60
2023-09-17T21:02:05.610Z,23.54
2023-09-17T21:07:05.474Z,23.57
2023-09-17T21:12:06.443Z,23.61
2023-09-17T21:17:06.301Z,23.59
2023-09-17T21:22:08.042Z,23.55
2023-09-17T21:27:08.846Z,23.41
2023-09-17T21:32:08.177Z,23.41
2023-09-17T21:37:07.277Z,23.42
2023-09-17T21:42:06.904Z,23.35
2023-09-17T21:47:07.491Z,23.22
2023-09-17T21:52:06.617Z,23.06
2023-09-17T21:57:17.392Z,23.08
2023-09-17T22:02:18.346Z,23.06
2023-09-17T22:07:18.738Z,22.97
2023-09-17T22:12:17.914Z,22.94
2023-09-17T22:17:20.184Z,23.01
2023-09-17T22:22:19.701Z,23.03
2023-09-17T22:27:18.908Z,22.97
2023-09-17T22:32:19.312Z,22.88
2023-09-17T22:37:18.712Z,22.59
2023-09-17T22:42:17.616Z,22.51
2023-09-17T22:47:17.690Z,22.47
2023-09-17T22:52:18.120Z,22.39
2023-09-17T22:57:17.398Z,22.34
2023-09-17T23:02:16.487Z,22.28
2023-09-17T23:07:15.732Z,22.16
2023-09-17T23:12:16.426Z,22.22
2023-09-17T23:17:18.134Z,22.02
2023-09-17T23:22:17.204Z,21.96
2023-09-17T23:27:17.639Z,21.96
2023-09-17T23:32:16.605Z,21.94
2023-09-17T23:37:16.528Z,21.78
2023-09-17T23:42:15.494Z,21.73
2023-09-17T23:47:15.902Z,21.70
2023-09-17T23:52:15.597Z,21.54
2023-09-17T23:57:15.357Z,21.41
